createdAt,value
2022-10-12T00:07:45.522Z,77
2022-10-12T00:17:53.197Z,77
2022-10-12T00:28:00.674Z,77
2022-10-12T00:38:08.128Z,78
2022-10-12T00:48:15.650Z,78
2022-10-12T00:58:23.522Z,78
2022-10-12T01:08:31.041Z,79
2022-10-12T01:18:38.558Z,79
2022-10-12T01:28:46.295Z,79
2022-10-12T01:38:54.333Z,79
2022-10-12T01:49:01.921Z,80
2022-10-12T01:59:09.384Z,80
2022-10-12T02:09:16.869Z,80
2022-10-12T02:19:24.525Z,80
2022-10-12T02:29:34.226Z,79
2022-10-12T02:39:41.756Z,79
2022-10-12T02:49:49.297Z,79
2022-10-12T02:59:56.792Z,79
2022-10-12T03:10:05.496Z,79
2022-10-12T03:20:14.307Z,79
2022-10-12T03:30:22.086Z,78
2022-10-12T03:40:29.779Z,78
2022-10-12T03:50:37.433Z,80
2022-10-12T04:00:46.322Z,80
2022-10-12T04:10:53.765Z,80
2022-10-12T04:21:01.437Z,81
2022-10-12T04:31:09.086Z,81
2022-10-12T04:41:16.689Z,81
2022-10-12T04:51:29.069Z,81
2022-10-12T05:01:25.500Z,80
2022-10-12T05:11:33.085Z,80
2022-10-12T05:21:40.654Z,79
2022-10-12T05:31:48.229Z,79
2022-10-12T05:41:55.754Z,79
2022-10-12T05:52:03.280Z,79
2022-10-12T06:02:10.969Z,78
2022-10-12T06:12:18.734Z,78
2022-10-12T06:22:26.244Z,78
2022-10-12T06:32:33.737Z,76
2022-10-12T06:42:42.123Z,75
2022-10-12T06:52:49.714Z,75
2022-10-12T07:02:57.204Z,74
2022-10-12T07:13:04.745Z,74
2022-10-12T07:23:12.421Z,74
2022-10-12T07:33:19.983Z,74
2022-10-12T07:43:27.593Z,73
2022-10-12T07:53:35.149Z,72
2022-10-12T08:03:43.021Z,70
2022-10-12T08:13:50.532Z,70
2022-10-12T08:23:58.104Z,68
2022-10-12T08:34:05.720Z,65
2022-10-12T08:44:14.676Z,61
2022-10-12T08:54:23.397Z,58
2022-10-12T09:04:32.168Z,56
2022-10-12T09:14:42.543Z,54
2022-10-12T09:24:41.248Z,54
2022-10-12T09:34:49.238Z,55
2022-10-12T09:44:56.894Z,54
2022-10-12T09:55:05.450Z,50
2022-10-12T10:05:12.438Z,49
2022-10-12T10:15:20.049Z,46
2022-10-12T10:25:28.619Z,46
2022-10-12T10:35:37.105Z,46
2022-10-12T10:55:52.382Z,46
2022-10-12T11:06:00.383Z,44
2022-10-12T11:16:09.362Z,41
2022-10-12T11:26:08.083Z,41
2022-10-12T11:36:15.696Z,40
2022-10-12T11:46:23.227Z,41
2022-10-12T12:16:34.934Z,45
2022-10-12T12:26:42.525Z,46
2022-10-12T12:36:50.009Z,46
2022-10-12T12:46:59.306Z,45
2022-10-12T12:57:13.923Z,46
2022-10-12T13:07:11.810Z,45
2022-10-12T13:17:33.199Z,47
2022-10-12T13:37:23.716Z,46
2022-10-12T13:47:33.750Z,45
2022-10-12T13:57:34.671Z,46
2022-10-12T14:07:43.034Z,46
2022-10-12T14:17:51.715Z,44
2022-10-12T14:28:02.769Z,48
2022-10-12T14:38:02.277Z,50
2022-10-12T14:48:01.575Z,52
2022-10-12T14:58:10.463Z,53
2022-10-12T15:08:18.058Z,53
2022-10-12T15:18:25.598Z,54
2022-10-12T15:28:33.766Z,52
2022-10-12T15:38:41.186Z,55
2022-10-12T15:48:48.838Z,56
2022-10-12T15:58:56.440Z,58
2022-10-12T16:09:04.936Z,58
2022-10-12T16:19:15.400Z,60
2022-10-12T16:29:13.004Z,61
2022-10-12T16:39:20.446Z,61
2022-10-12T16:49:27.845Z,61
2022-10-12T16:59:35.367Z,60
2022-10-12T17:09:42.895Z,61
2022-10-12T17:19:50.391Z,61
2022-10-12T17:29:58.934Z,62
2022-10-12T17:40:06.454Z,63
2022-10-12T17:50:15.049Z,63
2022-10-12T18:00:22.528Z,63
2022-10-12T18:10:29.568Z,64
2022-10-12T18:20:37.129Z,64
2022-10-12T18:30:47.133Z,65
2022-10-12T18:40:53.725Z,65
2022-10-12T18:51:00.284Z,65
2022-10-12T19:01:07.948Z,65
2022-10-12T19:11:15.584Z,64
2022-10-12T19:21:25.812Z,65
2022-10-12T19:31:25.913Z,66
2022-10-12T19:41:33.919Z,67
2022-10-12T19:51:41.830Z,67
2022-10-12T20:01:50.859Z,68
2022-10-12T20:12:00.812Z,67
2022-10-12T20:22:02.734Z,68
2022-10-12T20:32:02.529Z,68
2022-10-12T20:42:14.521Z,68
2022-10-12T20:52:19.289Z,70
2022-10-12T21:02:26.651Z,70
2022-10-12T21:12:36.463Z,70
2022-10-12T21:22:44.554Z,71
2022-10-12T21:32:52.404Z,71
2022-10-12T21:42:59.987Z,71
2022-10-12T21:53:07.614Z,71
2022-10-12T22:03:15.290Z,72
2022-10-12T22:13:22.822Z,72
2022-10-12T22:23:30.559Z,73
2022-10-12T22:33:39.248Z,73
2022-10-12T22:43:46.850Z,73
2022-10-12T22:53:54.317Z,73
2022-10-12T23:04:04.032Z,74
2022-10-12T23:14:12.711Z,74
2022-10-12T23:24:20.305Z,75
2022-10-12T23:34:29.167Z,75
2022-10-12T23:44:37.861Z,75
2022-10-12T23:54:45.414Z,76
